createdAt,value
2022-10-17T00:04:19.761Z,98.49
2022-10-17T00:09:19.726Z,98.59
2022-10-17T00:14:19.608Z,98.59
2022-10-17T00:19:19.611Z,98.90
2022-10-17T00:24:19.480Z,98.69
2022-10-17T00:29:19.427Z,98.59
2022-10-17T00:34:23.808Z,98.90
2022-10-17T00:39:19.319Z,98.69
2022-10-17T00:44:19.299Z,98.79
2022-10-17T00:49:19.345Z,99.05
2022-10-17T00:54:19.095Z,98.54
2022-10-17T00:59:19.082Z,98.85
2022-10-17T01:04:19.457Z,98.85
2022-10-17T01:09:19.069Z,98.95
2022-10-17T01:14:22.551Z,98.95
2022-10-17T01:19:18.926Z,98.85
2022-10-17T01:24:18.912Z,98.65
2022-10-17T01:29:18.723Z,98.95
2022-10-17T01:34:18.709Z,98.54
2022-10-17T01:39:19.653Z,98.34
2022-10-17T01:44:18.656Z,98.85
2022-10-17T01:49:18.595Z,98.95
2022-10-17T01:54:18.613Z,98.70
2022-10-17T01:59:19.521Z,98.80
2022-10-17T02:04:18.610Z,98.54
2022-10-17T02:09:20.512Z,98.60
2022-10-17T02:14:19.276Z,98.90
2022-10-17T02:19:27.037Z,98.09
2022-10-17T02:24:18.159Z,98.09
2022-10-17T02:29:18.133Z,98.39
2022-10-17T02:34:18.080Z,98.39
2022-10-17T02:39:17.941Z,98.29
2022-10-17T02:44:17.907Z,98.24
2022-10-17T02:49:17.850Z,98.39
2022-10-17T02:54:17.789Z,98.29
2022-10-17T02:59:17.719Z,98.19
2022-10-17T03:04:17.788Z,98.09
2022-10-17T03:09:17.652Z,98.09
2022-10-17T03:14:17.658Z,98.39
2022-10-17T03:19:17.567Z,98.09
2022-10-17T03:24:17.552Z,97.54
2022-10-17T03:29:17.396Z,97.94
2022-10-17T03:34:17.344Z,97.44
2022-10-17T03:39:17.283Z,97.44
2022-10-17T03:44:17.260Z,97.09
2022-10-17T03:49:17.194Z,96.69
2022-10-17T03:54:17.232Z,96.89
2022-10-17T03:59:17.176Z,96.89
2022-10-17T04:04:17.116Z,96.48
2022-10-17T04:09:16.953Z,96.08
2022-10-17T04:14:16.923Z,96.22
2022-10-17T04:19:16.861Z,96.78
2022-10-17T04:24:16.873Z,95.67
2022-10-17T04:29:16.818Z,95.78
2022-10-17T04:34:16.752Z,95.67
2022-10-17T04:39:17.713Z,94.57
2022-10-17T04:44:16.585Z,94.01
2022-10-17T04:49:16.521Z,93.96
2022-10-17T04:54:16.473Z,93.16
2022-10-17T04:59:16.405Z,93.66
2022-10-17T05:04:17.488Z,94.31
2022-10-17T05:09:16.436Z,94.82
2022-10-17T05:14:16.404Z,93.87
2022-10-17T05:19:16.195Z,93.46
2022-10-17T05:24:16.241Z,93.16
2022-10-17T05:29:16.214Z,93.91
2022-10-17T05:34:16.157Z,93.46
2022-10-17T05:39:16.037Z,92.96
2022-10-17T05:44:16.000Z,93.26
2022-10-17T05:49:31.883Z,92.85
2022-10-17T05:54:17.837Z,92.85
2022-10-17T05:59:15.836Z,92.00
2022-10-17T06:04:15.709Z,90.45
2022-10-17T06:09:15.696Z,90.04
2022-10-17T06:14:15.765Z,90.04
2022-10-17T06:19:15.522Z,90.95
2022-10-17T06:24:15.495Z,91.60
2022-10-17T06:29:15.504Z,91.30
2022-10-17T06:34:17.473Z,90.95
2022-10-17T06:39:15.376Z,90.45
2022-10-17T06:44:15.284Z,90.14
2022-10-17T06:49:15.250Z,90.04
2022-10-17T06:54:15.182Z,90.14
2022-10-17T06:59:15.152Z,90.34
2022-10-17T07:04:15.059Z,89.59
2022-10-17T07:09:16.034Z,89.05
2022-10-17T07:14:14.980Z,88.54
2022-10-17T07:19:15.059Z,89.45
2022-10-17T07:24:14.969Z,89.15
2022-10-17T07:29:14.882Z,88.50
2022-10-17T07:34:14.723Z,87.49
2022-10-17T07:39:14.682Z,87.09
2022-10-17T07:44:14.653Z,86.75
2022-10-17T07:49:14.563Z,86.35
2022-10-17T07:54:14.525Z,85.90
2022-10-17T07:59:14.439Z,86.00
2022-10-17T08:04:14.381Z,85.90
2022-10-17T08:09:14.356Z,84.65
2022-10-17T08:14:14.282Z,84.51
2022-10-17T08:19:23.076Z,83.06
2022-10-17T08:24:14.173Z,82.36
2022-10-17T08:29:14.434Z,82.12
2022-10-17T08:34:15.134Z,81.24
2022-10-17T08:39:14.099Z,81.14
2022-10-17T08:44:14.041Z,79.66
2022-10-17T08:49:13.933Z,78.85
2022-10-17T08:54:13.941Z,78.35
2022-10-17T08:59:13.897Z,77.75
2022-10-17T09:04:13.827Z,77.55
2022-10-17T09:09:13.748Z,78.22
2022-10-17T09:14:13.699Z,78.52
2022-10-17T09:19:13.699Z,76.67
2022-10-17T09:24:15.712Z,75.74
2022-10-17T09:29:14.456Z,76.14
2022-10-17T09:34:13.485Z,75.74
2022-10-17T09:39:13.386Z,75.43
2022-10-17T09:44:13.319Z,76.43
2022-10-17T09:49:14.904Z,76.30
2022-10-17T09:54:13.178Z,75.80
2022-10-17T09:59:13.994Z,75.70
2022-10-17T10:04:13.081Z,74.90
2022-10-17T10:09:13.023Z,76.54
2022-10-17T10:14:12.963Z,77.24
2022-10-17T10:19:12.903Z,76.54
2022-10-17T10:24:12.856Z,76.14
2022-10-17T10:29:13.817Z,77.80
2022-10-17T10:34:12.861Z,76.50
2022-10-17T10:39:12.725Z,77.40
2022-10-17T10:44:13.711Z,76.60
2022-10-17T10:49:12.741Z,77.50
2022-10-17T10:54:12.546Z,75.67
2022-10-17T10:59:13.482Z,75.76
2022-10-17T11:04:12.494Z,75.96
2022-10-17T11:09:12.472Z,74.87
2022-10-17T11:14:13.868Z,76.53
2022-10-17T11:19:12.388Z,74.59
2022-10-17T11:24:12.212Z,76.29
2022-10-17T11:29:12.142Z,75.29
2022-10-17T11:34:12.076Z,75.26
2022-10-17T11:39:12.027Z,77.26
2022-10-17T11:44:11.994Z,77.13
2022-10-17T11:49:16.136Z,76.17
2022-10-17T11:54:12.909Z,75.16
2022-10-17T11:59:11.805Z,75.96
2022-10-17T12:04:11.809Z,77.06
2022-10-17T12:09:11.695Z,76.76
2022-10-17T12:14:11.730Z,76.00
2022-10-17T12:19:11.685Z,77.86
2022-10-17T12:24:15.517Z,77.06
2022-10-17T12:29:12.583Z,76.40
2022-10-17T12:34:11.567Z,78.36
2022-10-17T12:39:11.494Z,77.91
2022-10-17T12:44:12.402Z,78.20
2022-10-17T12:49:11.287Z,78.80
2022-10-17T12:54:12.374Z,79.04
2022-10-17T12:59:11.298Z,80.85
2022-10-17T13:04:12.164Z,80.15
2022-10-17T13:09:11.151Z,80.85
2022-10-17T13:14:11.182Z,82.24
2022-10-17T13:19:12.012Z,82.59
2022-10-17T13:24:11.051Z,83.79
2022-10-17T13:29:11.033Z,83.95
2022-10-17T13:34:10.995Z,85.25
2022-10-17T13:39:12.269Z,86.50
2022-10-17T13:44:10.913Z,86.64
2022-10-17T13:49:10.759Z,86.74
2022-10-17T13:54:10.676Z,87.48
2022-10-17T14:25:27.375Z,88.24
2022-10-17T14:30:51.644Z,88.09
2022-10-17T14:35:41.716Z,88.48
2022-10-17T14:40:28.208Z,88.48
2022-10-17T14:45:27.163Z,87.58
2022-10-17T14:50:27.099Z,87.68
2022-10-17T14:55:27.162Z,87.68
2022-10-17T15:00:27.078Z,86.82
2022-10-17T15:05:27.040Z,85.11
2022-10-17T15:10:26.967Z,85.11
2022-10-17T15:15:26.962Z,84.91
2022-10-17T15:20:27.894Z,85.38
2022-10-17T15:25:27.127Z,84.71
2022-10-17T15:30:26.713Z,85.61
2022-10-17T15:35:26.697Z,86.76
2022-10-17T15:40:26.598Z,87.10
2022-10-17T15:45:26.554Z,88.61
2022-10-17T15:50:26.505Z,89.15
2022-10-17T15:55:26.437Z,89.76
2022-10-17T16:00:26.400Z,89.80
2022-10-17T16:05:26.400Z,90.11
2022-10-17T16:10:26.240Z,90.41
2022-10-17T16:15:26.181Z,90.91
2022-10-17T16:20:26.229Z,91.11
2022-10-17T16:25:26.186Z,91.75
2022-10-17T16:30:26.033Z,92.66
2022-10-17T16:35:26.044Z,92.76
2022-10-17T16:40:25.915Z,93.11
2022-10-17T16:45:25.872Z,93.21
2022-10-17T16:50:25.909Z,93.41
2022-10-17T16:55:25.812Z,94.01
2022-10-17T17:00:25.769Z,94.26
2022-10-17T17:05:25.690Z,94.36
2022-10-17T17:10:25.637Z,94.26
2022-10-17T17:15:25.589Z,94.46
2022-10-17T17:20:25.487Z,94.36
2022-10-17T17:25:25.458Z,94.26
2022-10-17T17:30:25.384Z,95.01
2022-10-17T17:35:25.344Z,95.11
2022-10-17T17:40:26.307Z,95.31
2022-10-17T17:45:25.365Z,95.21
2022-10-17T17:50:25.156Z,95.51
2022-10-17T17:55:26.222Z,95.81
2022-10-17T18:00:25.046Z,96.06
2022-10-17T18:05:25.009Z,95.72
2022-10-17T18:10:24.906Z,95.11
2022-10-17T18:15:24.896Z,94.81
2022-10-17T18:20:24.885Z,94.51
2022-10-17T18:25:24.826Z,94.20
2022-10-17T18:30:27.201Z,94.10
2022-10-17T18:35:25.731Z,94.35
2022-10-17T18:40:24.642Z,94.35
2022-10-17T18:45:24.601Z,94.35
2022-10-17T18:50:24.509Z,94.35
2022-10-17T18:55:24.451Z,94.39
2022-10-17T19:00:24.516Z,94.25
2022-10-17T19:05:24.371Z,94.59
2022-10-17T19:10:24.395Z,94.39
2022-10-17T19:15:25.950Z,94.49
2022-10-17T19:20:24.202Z,94.39
2022-10-17T19:25:24.134Z,94.39
2022-10-17T19:30:24.083Z,94.54
2022-10-17T19:35:23.999Z,94.84
2022-10-17T19:40:24.020Z,94.74
2022-10-17T19:45:23.900Z,94.34
2022-10-17T19:50:23.890Z,95.34
2022-10-17T19:55:23.803Z,95.54
2022-10-17T20:00:23.769Z,95.34
2022-10-17T20:05:26.055Z,95.43
2022-10-17T20:10:23.628Z,96.25
2022-10-17T20:15:23.592Z,95.94
2022-10-17T20:20:23.593Z,95.78
2022-10-17T20:25:23.525Z,95.78
2022-10-17T20:30:23.534Z,95.89
2022-10-17T20:35:23.490Z,95.98
2022-10-17T20:40:34.610Z,96.09
2022-10-17T20:45:37.518Z,96.34
2022-10-17T20:50:24.177Z,96.59
2022-10-17T20:55:23.152Z,96.64
2022-10-17T21:00:23.108Z,96.74
2022-10-17T21:05:23.118Z,96.64
2022-10-17T21:10:34.844Z,96.44
2022-10-17T21:15:23.954Z,96.64
2022-10-17T21:20:22.859Z,96.54
2022-10-17T21:25:22.831Z,96.34
2022-10-17T21:30:22.801Z,96.44
2022-10-17T21:35:22.763Z,96.58
2022-10-17T21:40:22.707Z,96.64
2022-10-17T21:45:25.839Z,96.78
2022-10-17T21:50:24.605Z,96.69
2022-10-17T21:55:22.495Z,96.78
2022-10-17T22:00:22.450Z,96.69
2022-10-17T22:05:22.361Z,96.58
2022-10-17T22:10:22.317Z,96.89
2022-10-17T22:15:22.291Z,96.89
2022-10-17T22:20:22.292Z,96.78
2022-10-17T22:25:22.236Z,96.69
2022-10-17T22:30:22.170Z,96.69
2022-10-17T22:35:22.100Z,96.78
2022-10-17T22:40:23.081Z,96.78
2022-10-17T22:45:21.946Z,96.78
2022-10-17T22:50:21.877Z,96.78
2022-10-17T22:55:21.830Z,96.93
2022-10-17T23:00:21.834Z,97.03
2022-10-17T23:05:21.781Z,97.24
2022-10-17T23:10:21.692Z,97.24
2022-10-17T23:15:21.655Z,97.24
2022-10-17T23:20:21.558Z,97.24
2022-10-17T23:25:21.503Z,97.24
2022-10-17T23:30:21.461Z,97.14
2022-10-17T23:35:21.370Z,96.83
2022-10-17T23:40:21.429Z,96.93
2022-10-17T23:45:21.534Z,96.93
2022-10-17T23:50:21.303Z,96.93
2022-10-17T23:55:21.161Z,96.93
